Historyczne dane pomiarowe

Dodano dane terminowe – wersja testowa.

Dane z okresu 1951-2019

Wersja bazy: 1.34 [2019-03-16, lista zmian], aktualizacja planowana na 2019-04-15

Dane meteo z obszaru Polski uzyskane na podstawie danych udostępnionych przez Instytut Meteorologii i Gospodarki Wodnej – Państwowy Instytut Badawczy.

 

Wybierz Datę:    

       

TemperaturaWilgotnośćWiatrCiśnienieOpadyŚniegCzas trwania zjawisk
 Stacja t tx tn tng RH VA  wxwx mslp ppp RRR   cm mm wxwxwxwxwxwxwx
1983-08-14 10.8 16.1 6.9 3.0 83.8- 4.7 1.7---- 0.0------------
1983-08-13 13.8 20.6 11.1 10.2 77.3- 7.7 3.0---- 3.6------------
1983-08-12 16.5 23.8 11.2 7.3 86.8- 5.3 0.3---- 1.7------------
1983-08-11 17.0 24.0 10.7 6.8 77.5- 4.7 0.3---- 0.0------------
1983-08-10 18.8 25.2 13.6 11.1 74.3- 1.3 1.0---- 0.0------------
1983-08-09 17.5 23.9 13.4 10.1 83.0- 5.3 1.3---- 0.0------------
1983-08-08 16.2 18.8 12.1 8.5 91.0- 8.0 0.3---- 10.4------------
1983-08-07 12.3 14.1 9.6 6.2 92.8- 8.0 0.0---- 0.5------------
1983-08-06 12.6 15.0 10.6 11.2 86.0- 7.7 0.0---- 0.1------------
1983-08-05 10.6 13.6 8.2 6.8 82.0- 4.0 1.7---- 0.0------------
1983-08-04 9.5 11.1 9.1 8.2 86.0- 8.0 1.0---- 8.7------------
1983-08-03 14.0 18.7 11.1 11.8 92.0- 8.0 1.0---- 21.6------------
1983-08-02 20.3 27.2 17.0 12.3 72.8- 7.3 1.0---- 2.7------------
1983-08-01 22.0 30.2 12.4 5.3 57.5- 0.0 1.0---- 0.0------------
1983-07-31 18.3 27.4 8.6 3.7 62.5- 0.0 1.0---- 0.0------------
1983-07-30 18.4 24.1 15.1 13.8 71.8- 4.7 1.3---- 0.2------------
1983-07-29 19.4 24.6 13.5 10.2 66.8- 4.3 1.0---- 1.4------------
1983-07-28 23.3 27.6 18.4 14.8 65.3- 0.0 0.7---- 0.0------------
1983-07-27 23.1 34.2 12.6 6.8 62.8- 0.0 0.0---- 0.0------------
1983-07-26 18.5 28.0 9.1 4.8 63.5- 0.0 0.3---- 0.0------------
1983-07-25 16.7 22.6 11.1 6.8 71.3- 2.3 0.7---- 0.0------------
1983-07-24 17.1 24.9 9.6 4.8 67.0- 2.0 0.7---- 0.5------------
1983-07-23 17.8 24.6 13.8 11.2 68.3- 4.0 1.0---- 0.0------------
1983-07-22 11.9 17.9 5.6 6.8 84.5- 8.0 1.0---- 0.4------------
1983-07-21 11.7 15.1 7.7 5.8 66.5- 2.7 1.7---- 0.0------------
1983-07-20 14.5 22.7 11.8 11.8 84.5- 8.0 1.7---- 5.7------------
1983-07-19 23.2 29.0 15.7 10.7 67.0- 3.3 1.0---- 13.0------------
1983-07-18 26.2 31.2 14.0 8.2 61.0- 0.0 1.0---- 0.5------------
1983-07-17 20.3 27.6 12.1 8.2 71.0- 1.3 1.0---- 0.0------------
1983-07-16 18.6 27.0 11.0 5.8 72.5- 1.7 1.3---- 0.5------------
1983-07-15 19.0 24.3 11.5 7.3 73.5- 4.7 0.7---- 0.0------------
1983-07-14 16.8 20.1 14.6 13.3 80.3- 6.7 0.7---- 0.0------------
1983-07-13 18.9 26.0 13.9 11.5 77.3- 3.0 2.0---- 3.0------------
1983-07-12 19.0 27.1 14.1 10.2 75.0- 4.3 1.0---- 11.0------------
1983-07-11 18.7 27.1 12.5 8.7 69.5- 2.0 1.0---- 0.5------------
1983-07-10 20.4 27.0 12.0 6.8 60.5- 2.3 1.0---- 0.0------------
1983-07-09 19.0 26.8 9.6 4.3 57.3- 0.0 0.3---- 0.0------------
1983-07-08 20.7 26.0 12.0 7.2 55.5- 0.0 1.0---- 0.0------------
1983-07-07 21.3 28.0 13.2 8.2 65.5- 0.0 0.7---- 0.0------------
1983-07-06 20.0 27.2 12.0 6.8 68.8- 0.7 0.7---- 0.0------------
1983-07-05 18.0 24.5 11.1 6.8 73.8- 1.3 1.0---- 0.0------------
1983-07-04 20.4 24.9 10.1 5.6 66.5- 0.7 1.3---- 0.0------------
1983-07-03 18.8 23.1 9.0 4.3 69.3- 0.7 0.7---- 0.0------------
1983-07-02 16.4 20.1 13.1 12.8 75.8- 4.7 1.3---- 0.0------------
1983-07-01 17.8 25.1 10.6 5.8 68.8- 3.0 0.7---- 0.0------------
1983-06-30 15.9 23.1 8.8 5.3 68.3- 2.7 0.3---- 0.0------------
1983-06-29 12.2 18.6 4.7 0.4 69.5- 3.3 0.3---- 0.0------------
1983-06-28 14.4 18.9 12.8 12.3 75.8- 5.3 1.0---- 0.0------------
1983-06-27 18.9 24.2 14.2 10.7 75.0- 4.0 2.0---- 1.2------------
1983-06-26 18.1 24.6 12.8 8.9 86.0- 7.7 0.7---- 3.0------------
1983-06-25 20.6 27.0 12.4 7.5 59.5- 1.3 2.0---- 13.0------------
1983-06-24 17.0 25.1 6.4 2.4 57.8- 0.0 2.0---- 0.0------------
1983-06-23 13.2 20.3 4.6 0.3 65.5- 0.0 1.7---- 0.0------------
1983-06-22 15.3 21.1 10.7 6.8 72.8- 4.0 2.0---- 0.0------------
1983-06-21 18.3 23.6 11.1 7.7 72.3- 0.3 1.0---- 0.0------------
1983-06-20 15.1 18.6 12.3 11.8 90.0- 7.0 0.0---- 0.0------------
1983-06-19 11.9 13.1 10.6 9.8 91.3- 8.0 1.7---- 11.5------------
1983-06-18 9.6 13.1 5.2 1.4 82.5- 8.0 1.0---- 0.7------------
1983-06-17 10.1 12.9 8.3 6.8 73.5- 8.0 1.0---- 0.0------------
1983-06-16 9.0 12.6 7.1 6.8 86.5- 8.0 1.0---- 0.4------------
614.8 ms

 

Źródłem pochodzenia danych jest Instytut Meteorologii i Gospodarki Wodnej – Państwowy Instytut Badawczy. Dane Instytutu Meteorologii i Gospodarki Wodnej – Państwowego Instytutu Badawczego zostały przetworzone.

Dane źródłowe można odnaleźć na stronie https://dane.imgw.pl